sensor_id;sensor_type;location;lat;lon;timestamp;temperature;humidity
20174;DHT22;10246;50.620;7.232;2023-06-22T00:01:08;22.90;1.00
20174;DHT22;10246;50.620;7.232;2023-06-22T00:03:36;22.90;1.00
20174;DHT22;10246;50.620;7.232;2023-06-22T00:06:03;23.00;1.00
20174;DHT22;10246;50.620;7.232;2023-06-22T00:08:30;23.00;1.00
20174;DHT22;10246;50.620;7.232;2023-06-22T00:10:56;23.10;1.00
20174;DHT22;10246;50.620;7.232;2023-06-22T00:13:23;23.10;1.00
20174;DHT22;10246;50.620;7.232;2023-06-22T00:15:50;23.10;1.00
20174;DHT22;10246;50.620;7.232;2023-06-22T00:18:16;23.10;1.00
20174;DHT22;10246;50.620;7.232;2023-06-22T00:20:45;23.10;1.00
20174;DHT22;10246;50.620;7.232;2023-06-22T00:23:12;23.10;1.00
20174;DHT22;10246;50.620;7.232;2023-06-22T00:25:41;23.20;1.00
20174;DHT22;10246;50.620;7.232;2023-06-22T00:28:08;23.20;1.00
20174;DHT22;10246;50.620;7.232;2023-06-22T00:30:35;23.20;1.00
20174;DHT22;10246;50.620;7.232;2023-06-22T00:33:02;23.10;1.00
20174;DHT22;10246;50.620;7.232;2023-06-22T00:35:31;23.10;1.00
20174;DHT22;10246;50.620;7.232;2023-06-22T00:38:03;23.10;1.00
20174;DHT22;10246;50.620;7.232;2023-06-22T00:40:32;23.10;1.00
20174;DHT22;10246;50.620;7.232;2023-06-22T00:43:06;23.10;1.00
20174;DHT22;10246;50.620;7.232;2023-06-22T00:45:33;23.20;1.00
20174;DHT22;10246;50.620;7.232;2023-06-22T00:48:00;23.20;1.00
20174;DHT22;10246;50.620;7.232;2023-06-22T00:50:29;23.20;1.00
20174;DHT22;10246;50.620;7.232;2023-06-22T00:53:04;23.20;1.00
20174;DHT22;10246;50.620;7.232;2023-06-22T00:55:34;23.20;1.00
20174;DHT22;10246;50.620;7.232;2023-06-22T00:58:02;23.20;1.00
20174;DHT22;10246;50.620;7.232;2023-06-22T01:00:31;23.20;1.00
20174;DHT22;10246;50.620;7.232;2023-06-22T01:02:58;23.20;1.00
20174;DHT22;10246;50.620;7.232;2023-06-22T01:05:25;23.10;1.00
20174;DHT22;10246;50.620;7.232;2023-06-22T01:08:03;22.90;1.00
20174;DHT22;10246;50.620;7.232;2023-06-22T01:10:40;22.80;1.00
20174;DHT22;10246;50.620;7.232;2023-06-22T01:13:14;22.90;1.00
20174;DHT22;10246;50.620;7.232;2023-06-22T01:15:45;22.90;1.00
20174;DHT22;10246;50.620;7.232;2023-06-22T01:18:15;22.90;1.00
20174;DHT22;10246;50.620;7.232;2023-06-22T01:20:44;23.00;1.00
20174;DHT22;10246;50.620;7.232;2023-06-22T01:23:20;22.90;1.00
20174;DHT22;10246;50.620;7.232;2023-06-22T01:25:59;22.90;1.00
20174;DHT22;10246;50.620;7.232;2023-06-22T01:28:48;23.00;1.00
20174;DHT22;10246;50.620;7.232;2023-06-22T01:31:18;22.90;1.00
20174;DHT22;10246;50.620;7.232;2023-06-22T01:33:48;22.90;1.00
20174;DHT22;10246;50.620;7.232;2023-06-22T01:36:16;23.00;1.00
20174;DHT22;10246;50.620;7.232;2023-06-22T01:38:44;22.90;1.00
20174;DHT22;10246;50.620;7.232;2023-06-22T01:41:12;22.80;1.00
20174;DHT22;10246;50.620;7.232;2023-06-22T01:43:40;22.80;1.00
20174;DHT22;10246;50.620;7.232;2023-06-22T01:46:08;22.80;1.00
20174;DHT22;10246;50.620;7.232;2023-06-22T01:48:35;22.80;1.00
20174;DHT22;10246;50.620;7.232;2023-06-22T01:51:02;22.80;1.00
20174;DHT22;10246;50.620;7.232;2023-06-22T01:53:29;22.90;1.00
20174;DHT22;10246;50.620;7.232;2023-06-22T01:55:56;23.00;1.00
20174;DHT22;10246;50.620;7.232;2023-06-22T01:58:25;22.90;1.00
20174;DHT22;10246;50.620;7.232;2023-06-22T02:00:55;22.80;1.00
20174;DHT22;10246;50.620;7.232;2023-06-22T02:03:29;22.70;1.00
20174;DHT22;10246;50.620;7.232;2023-06-22T02:06:03;22.60;1.00
20174;DHT22;10246;50.620;7.232;2023-06-22T02:08:35;22.60;1.00
20174;DHT22;10246;50.620;7.232;2023-06-22T02:11:03;22.60;1.00
20174;DHT22;10246;50.620;7.232;2023-06-22T02:13:32;22.60;1.00
20174;DHT22;10246;50.620;7.232;2023-06-22T02:16:00;22.60;1.00
20174;DHT22;10246;50.620;7.232;2023-06-22T02:18:28;22.60;1.00
20174;DHT22;10246;50.620;7.232;2023-06-22T02:20:55;22.50;1.00
20174;DHT22;10246;50.620;7.232;2023-06-22T02:23:22;22.40;1.00
20174;DHT22;10246;50.620;7.232;2023-06-22T02:25:48;22.40;1.00
20174;DHT22;10246;50.620;7.232;2023-06-22T02:28:15;22.40;1.00
20174;DHT22;10246;50.620;7.232;2023-06-22T02:30:42;22.40;1.00
20174;DHT22;10246;50.620;7.232;2023-06-22T02:33:09;22.50;1.00
20174;DHT22;10246;50.620;7.232;2023-06-22T02:35:37;22.50;1.00
20174;DHT22;10246;50.620;7.232;2023-06-22T02:38:05;22.50;1.00
20174;DHT22;10246;50.620;7.232;2023-06-22T02:40:34;22.50;1.00
20174;DHT22;10246;50.620;7.232;2023-06-22T02:43:02;22.50;1.00
20174;DHT22;10246;50.620;7.232;2023-06-22T02:45:29;22.50;1.00
20174;DHT22;10246;50.620;7.232;2023-06-22T02:47:56;22.50;1.00
20174;DHT22;10246;50.620;7.232;2023-06-22T02:50:23;22.50;1.00
20174;DHT22;10246;50.620;7.232;2023-06-22T02:52:51;22.50;1.00
20174;DHT22;10246;50.620;7.232;2023-06-22T02:55:18;22.50;1.00
20174;DHT22;10246;50.620;7.232;2023-06-22T02:57:44;22.40;1.00
20174;DHT22;10246;50.620;7.232;2023-06-22T03:00:13;22.40;1.00
20174;DHT22;10246;50.620;7.232;2023-06-22T03:02:43;22.20;1.50
20174;DHT22;10246;50.620;7.232;2023-06-22T03:05:10;22.10;2.60
20174;DHT22;10246;50.620;7.232;2023-06-22T03:07:39;22.20;3.00
20174;DHT22;10246;50.620;7.232;2023-06-22T03:10:08;22.20;3.50
20174;DHT22;10246;50.620;7.232;2023-06-22T03:12:36;22.20;3.90
20174;DHT22;10246;50.620;7.232;2023-06-22T03:15:04;22.20;3.90
20174;DHT22;10246;50.620;7.232;2023-06-22T03:17:30;22.20;3.60
20174;DHT22;10246;50.620;7.232;2023-06-22T03:19:57;22.20;3.50
20174;DHT22;10246;50.620;7.232;2023-06-22T03:22:24;22.30;4.40
20174;DHT22;10246;50.620;7.232;2023-06-22T03:24:51;22.30;4.10
20174;DHT22;10246;50.620;7.232;2023-06-22T03:27:19;22.30;3.90
20174;DHT22;10246;50.620;7.232;2023-06-22T03:29:45;22.30;4.00
20174;DHT22;10246;50.620;7.232;2023-06-22T03:32:12;22.20;4.40
20174;DHT22;10246;50.620;7.232;2023-06-22T03:34:39;22.30;5.00
20174;DHT22;10246;50.620;7.232;2023-06-22T03:37:06;22.20;5.40
20174;DHT22;10246;50.620;7.232;2023-06-22T03:39:32;22.20;4.40
20174;DHT22;10246;50.620;7.232;2023-06-22T03:41:59;22.00;4.90
20174;DHT22;10246;50.620;7.232;2023-06-22T03:44:27;21.90;5.90
20174;DHT22;10246;50.620;7.232;2023-06-22T03:46:54;21.90;6.30
20174;DHT22;10246;50.620;7.232;2023-06-22T03:49:20;22.00;6.40
20174;DHT22;10246;50.620;7.232;2023-06-22T03:51:47;22.00;6.40
20174;DHT22;10246;50.620;7.232;2023-06-22T03:54:14;21.90;7.00
20174;DHT22;10246;50.620;7.232;2023-06-22T03:56:41;21.80;6.20
20174;DHT22;10246;50.620;7.232;2023-06-22T03:59:07;21.80;6.40
20174;DHT22;10246;50.620;7.232;2023-06-22T04:01:36;21.90;6.70
20174;DHT22;10246;50.620;7.232;2023-06-22T04:04:03;21.90;7.00
20174;DHT22;10246;50.620;7.232;2023-06-22T04:06:30;21.90;6.30
20174;DHT22;10246;50.620;7.232;2023-06-22T04:08:57;22.00;6.40
20174;DHT22;10246;50.620;7.232;2023-06-22T04:11:24;22.00;5.80
20174;DHT22;10246;50.620;7.232;2023-06-22T04:13:50;22.00;6.10
20174;DHT22;10246;50.620;7.232;2023-06-22T04:16:17;22.00;5.40
20174;DHT22;10246;50.620;7.232;2023-06-22T04:18:45;22.00;5.30
20174;DHT22;10246;50.620;7.232;2023-06-22T04:21:13;22.00;5.50
20174;DHT22;10246;50.620;7.232;2023-06-22T04:23:39;21.90;5.40
20174;DHT22;10246;50.620;7.232;2023-06-22T04:26:06;21.90;5.60
20174;DHT22;10246;50.620;7.232;2023-06-22T04:28:33;21.90;5.60
20174;DHT22;10246;50.620;7.232;2023-06-22T04:31:00;21.90;6.30
20174;DHT22;10246;50.620;7.232;2023-06-22T04:33:28;21.90;5.60
20174;DHT22;10246;50.620;7.232;2023-06-22T04:35:57;21.90;5.30
20174;DHT22;10246;50.620;7.232;2023-06-22T04:38:24;21.90;4.60
20174;DHT22;10246;50.620;7.232;2023-06-22T04:40:51;21.80;5.40
20174;DHT22;10246;50.620;7.232;2023-06-22T04:43:18;21.80;6.10
20174;DHT22;10246;50.620;7.232;2023-06-22T04:45:45;21.80;6.30
20174;DHT22;10246;50.620;7.232;2023-06-22T04:48:12;21.80;5.80
20174;DHT22;10246;50.620;7.232;2023-06-22T04:50:43;21.70;6.20
20174;DHT22;10246;50.620;7.232;2023-06-22T04:53:11;21.80;6.20
20174;DHT22;10246;50.620;7.232;2023-06-22T04:55:38;21.80;5.90
20174;DHT22;10246;50.620;7.232;2023-06-22T04:58:07;21.80;6.20
20174;DHT22;10246;50.620;7.232;2023-06-22T05:00:34;21.80;6.20
20174;DHT22;10246;50.620;7.232;2023-06-22T05:03:02;21.90;5.60
20174;DHT22;10246;50.620;7.232;2023-06-22T05:05:29;21.90;5.00
20174;DHT22;10246;50.620;7.232;2023-06-22T05:07:57;21.80;5.60
20174;DHT22;10246;50.620;7.232;2023-06-22T05:10:27;21.80;6.20
20174;DHT22;10246;50.620;7.232;2023-06-22T05:12:53;21.80;5.70
20174;DHT22;10246;50.620;7.232;2023-06-22T05:15:20;21.90;5.20
20174;DHT22;10246;50.620;7.232;2023-06-22T05:17:48;21.90;4.90
20174;DHT22;10246;50.620;7.232;2023-06-22T05:20:15;22.00;4.10
20174;DHT22;10246;50.620;7.232;2023-06-22T05:22:43;22.00;4.30
20174;DHT22;10246;50.620;7.232;2023-06-22T05:25:11;22.00;4.20
20174;DHT22;10246;50.620;7.232;2023-06-22T05:27:39;22.10;4.30
20174;DHT22;10246;50.620;7.232;2023-06-22T05:30:07;22.10;3.70
20174;DHT22;10246;50.620;7.232;2023-06-22T05:32:34;22.20;3.10
20174;DHT22;10246;50.620;7.232;2023-06-22T05:35:00;22.30;3.00
20174;DHT22;10246;50.620;7.232;2023-06-22T05:37:28;22.40;2.80
20174;DHT22;10246;50.620;7.232;2023-06-22T05:39:54;22.50;2.50
20174;DHT22;10246;50.620;7.232;2023-06-22T05:42:22;22.50;2.10
20174;DHT22;10246;50.620;7.232;2023-06-22T05:44:52;22.50;2.10
20174;DHT22;10246;50.620;7.232;2023-06-22T05:47:19;22.50;2.10
20174;DHT22;10246;50.620;7.232;2023-06-22T05:49:46;22.60;2.90
20174;DHT22;10246;50.620;7.232;2023-06-22T05:52:12;22.60;1.70
20174;DHT22;10246;50.620;7.232;2023-06-22T05:54:39;22.60;1.20
20174;DHT22;10246;50.620;7.232;2023-06-22T05:57:07;22.70;1.00
20174;DHT22;10246;50.620;7.232;2023-06-22T05:59:33;22.70;1.00
20174;DHT22;10246;50.620;7.232;2023-06-22T06:02:02;22.80;1.00
20174;DHT22;10246;50.620;7.232;2023-06-22T06:04:29;22.80;1.00
20174;DHT22;10246;50.620;7.232;2023-06-22T06:06:55;22.90;1.00
20174;DHT22;10246;50.620;7.232;2023-06-22T06:09:22;22.90;1.00
20174;DHT22;10246;50.620;7.232;2023-06-22T06:11:49;23.00;1.00
20174;DHT22;10246;50.620;7.232;2023-06-22T06:14:17;23.10;1.00
20174;DHT22;10246;50.620;7.232;2023-06-22T06:16:44;23.20;1.00
20174;DHT22;10246;50.620;7.232;2023-06-22T06:19:12;23.30;1.00
20174;DHT22;10246;50.620;7.232;2023-06-22T06:21:38;23.40;1.00
20174;DHT22;10246;50.620;7.232;2023-06-22T06:24:05;23.40;1.00
20174;DHT22;10246;50.620;7.232;2023-06-22T06:26:32;23.50;1.00
20174;DHT22;10246;50.620;7.232;2023-06-22T06:29:01;23.50;1.00
20174;DHT22;10246;50.620;7.232;2023-06-22T06:31:29;23.60;1.00
20174;DHT22;10246;50.620;7.232;2023-06-22T06:33:55;23.70;1.00
20174;DHT22;10246;50.620;7.232;2023-06-22T06:36:26;23.70;1.00
20174;DHT22;10246;50.620;7.232;2023-06-22T06:38:53;23.70;1.00
20174;DHT22;10246;50.620;7.232;2023-06-22T06:41:20;23.80;1.00
20174;DHT22;10246;50.620;7.232;2023-06-22T06:43:47;23.80;1.00
20174;DHT22;10246;50.620;7.232;2023-06-22T06:46:14;23.80;1.00
20174;DHT22;10246;50.620;7.232;2023-06-22T06:48:41;23.90;1.00
20174;DHT22;10246;50.620;7.232;2023-06-22T06:51:08;24.00;1.00
20174;DHT22;10246;50.620;7.232;2023-06-22T06:53:37;24.10;1.00
20174;DHT22;10246;50.620;7.232;2023-06-22T06:56:05;24.20;1.00
20174;DHT22;10246;50.620;7.232;2023-06-22T06:58:32;24.20;1.00
20174;DHT22;10246;50.620;7.232;2023-06-22T07:00:59;24.30;1.00
20174;DHT22;10246;50.620;7.232;2023-06-22T07:03:26;24.40;1.00
20174;DHT22;10246;50.620;7.232;2023-06-22T07:05:52;24.50;1.00
20174;DHT22;10246;50.620;7.232;2023-06-22T07:08:19;24.60;1.00
20174;DHT22;10246;50.620;7.232;2023-06-22T07:10:47;24.70;1.00
20174;DHT22;10246;50.620;7.232;2023-06-22T07:13:14;24.80;1.00
20174;DHT22;10246;50.620;7.232;2023-06-22T07:15:40;24.90;1.00
20174;DHT22;10246;50.620;7.232;2023-06-22T07:18:07;24.90;1.00
20174;DHT22;10246;50.620;7.232;2023-06-22T07:20:34;24.90;1.00
20174;DHT22;10246;50.620;7.232;2023-06-22T07:23:01;25.00;1.00
20174;DHT22;10246;50.620;7.232;2023-06-22T07:25:28;25.00;1.00
20174;DHT22;10246;50.620;7.232;2023-06-22T07:28:01;25.20;1.00
20174;DHT22;10246;50.620;7.232;2023-06-22T07:30:28;25.30;1.00
20174;DHT22;10246;50.620;7.232;2023-06-22T07:32:56;25.50;1.00
20174;DHT22;10246;50.620;7.232;2023-06-22T07:35:23;25.70;1.00
20174;DHT22;10246;50.620;7.232;2023-06-22T07:37:49;25.90;1.00
20174;DHT22;10246;50.620;7.232;2023-06-22T07:40:16;25.90;1.00
20174;DHT22;10246;50.620;7.232;2023-06-22T07:42:44;25.90;1.00
20174;DHT22;10246;50.620;7.232;2023-06-22T07:45:14;25.90;1.00
20174;DHT22;10246;50.620;7.232;2023-06-22T07:47:41;26.00;1.00
20174;DHT22;10246;50.620;7.232;2023-06-22T07:50:09;26.10;1.00
20174;DHT22;10246;50.620;7.232;2023-06-22T07:52:37;26.30;1.00
20174;DHT22;10246;50.620;7.232;2023-06-22T07:55:04;26.30;1.00
20174;DHT22;10246;50.620;7.232;2023-06-22T07:57:31;26.40;1.00
20174;DHT22;10246;50.620;7.232;2023-06-22T08:00:03;26.40;1.00
20174;DHT22;10246;50.620;7.232;2023-06-22T08:02:38;26.40;1.00
20174;DHT22;10246;50.620;7.232;2023-06-22T08:05:05;26.50;1.00
20174;DHT22;10246;50.620;7.232;2023-06-22T08:07:33;26.60;1.00
20174;DHT22;10246;50.620;7.232;2023-06-22T08:10:01;26.60;1.00
20174;DHT22;10246;50.620;7.232;2023-06-22T08:12:28;26.60;1.00
20174;DHT22;10246;50.620;7.232;2023-06-22T08:14:54;26.70;1.00
20174;DHT22;10246;50.620;7.232;2023-06-22T08:17:22;26.70;1.00
20174;DHT22;10246;50.620;7.232;2023-06-22T08:19:50;26.70;1.00
20174;DHT22;10246;50.620;7.232;2023-06-22T08:22:17;26.80;1.00
20174;DHT22;10246;50.620;7.232;2023-06-22T08:24:44;26.90;1.00
20174;DHT22;10246;50.620;7.232;2023-06-22T08:27:11;27.00;1.00
20174;DHT22;10246;50.620;7.232;2023-06-22T08:29:38;27.30;1.00
20174;DHT22;10246;50.620;7.232;2023-06-22T08:32:08;27.60;1.00
20174;DHT22;10246;50.620;7.232;2023-06-22T08:34:35;27.70;1.00
20174;DHT22;10246;50.620;7.232;2023-06-22T08:37:03;27.70;1.00
20174;DHT22;10246;50.620;7.232;2023-06-22T08:39:31;27.70;1.00
20174;DHT22;10246;50.620;7.232;2023-06-22T08:41:58;27.80;1.00
20174;DHT22;10246;50.620;7.232;2023-06-22T08:44:25;27.80;1.00
20174;DHT22;10246;50.620;7.232;2023-06-22T08:46:52;28.00;1.00
20174;DHT22;10246;50.620;7.232;2023-06-22T08:49:18;28.00;1.00
20174;DHT22;10246;50.620;7.232;2023-06-22T08:51:45;28.10;1.00
20174;DHT22;10246;50.620;7.232;2023-06-22T08:54:16;28.30;1.00
20174;DHT22;10246;50.620;7.232;2023-06-22T08:56:42;28.30;1.00
20174;DHT22;10246;50.620;7.232;2023-06-22T08:59:10;28.50;1.00
20174;DHT22;10246;50.620;7.232;2023-06-22T09:01:36;28.70;1.00
20174;DHT22;10246;50.620;7.232;2023-06-22T09:04:15;28.90;1.00
20174;DHT22;10246;50.620;7.232;2023-06-22T09:06:55;28.90;1.00
20174;DHT22;10246;50.620;7.232;2023-06-22T09:09:23;28.90;1.00
20174;DHT22;10246;50.620;7.232;2023-06-22T09:11:50;28.90;1.00
20174;DHT22;10246;50.620;7.232;2023-06-22T09:14:16;29.00;1.00
20174;DHT22;10246;50.620;7.232;2023-06-22T09:16:43;29.10;1.00
20174;DHT22;10246;50.620;7.232;2023-06-22T09:19:10;29.10;1.00
20174;DHT22;10246;50.620;7.232;2023-06-22T09:21:37;29.20;1.00
20174;DHT22;10246;50.620;7.232;2023-06-22T09:24:04;29.10;1.00
20174;DHT22;10246;50.620;7.232;2023-06-22T09:26:32;29.10;1.00
20174;DHT22;10246;50.620;7.232;2023-06-22T09:28:59;29.20;1.00
20174;DHT22;10246;50.620;7.232;2023-06-22T09:31:25;29.30;1.00
20174;DHT22;10246;50.620;7.232;2023-06-22T09:33:53;29.30;1.00
20174;DHT22;10246;50.620;7.232;2023-06-22T09:36:20;29.20;1.00
20174;DHT22;10246;50.620;7.232;2023-06-22T09:38:48;29.20;1.00
20174;DHT22;10246;50.620;7.232;2023-06-22T09:41:21;29.20;1.00
20174;DHT22;10246;50.620;7.232;2023-06-22T09:43:49;29.30;1.00
20174;DHT22;10246;50.620;7.232;2023-06-22T09:46:16;29.40;1.00
20174;DHT22;10246;50.620;7.232;2023-06-22T09:48:43;29.40;1.00
20174;DHT22;10246;50.620;7.232;2023-06-22T09:51:10;29.40;1.00
20174;DHT22;10246;50.620;7.232;2023-06-22T09:53:36;29.30;1.00
20174;DHT22;10246;50.620;7.232;2023-06-22T09:56:04;29.20;1.00
20174;DHT22;10246;50.620;7.232;2023-06-22T09:58:31;29.20;1.00
20174;DHT22;10246;50.620;7.232;2023-06-22T10:00:59;29.20;1.00
20174;DHT22;10246;50.620;7.232;2023-06-22T10:03:26;29.10;1.00
20174;DHT22;10246;50.620;7.232;2023-06-22T10:05:53;29.10;1.00
20174;DHT22;10246;50.620;7.232;2023-06-22T10:08:20;29.10;1.00
20174;DHT22;10246;50.620;7.232;2023-06-22T10:10:47;29.00;1.00
20174;DHT22;10246;50.620;7.232;2023-06-22T10:13:13;28.90;1.00
20174;DHT22;10246;50.620;7.232;2023-06-22T10:15:41;28.90;1.00
20174;DHT22;10246;50.620;7.232;2023-06-22T10:18:09;28.80;1.00
20174;DHT22;10246;50.620;7.232;2023-06-22T10:20:36;28.80;1.00
20174;DHT22;10246;50.620;7.232;2023-06-22T10:23:03;28.60;1.00
20174;DHT22;10246;50.620;7.232;2023-06-22T10:25:29;28.40;1.00
20174;DHT22;10246;50.620;7.232;2023-06-22T10:28:05;28.10;1.00
20174;DHT22;10246;50.620;7.232;2023-06-22T10:30:43;28.00;1.00
20174;DHT22;10246;50.620;7.232;2023-06-22T10:33:12;27.80;1.00
20174;DHT22;10246;50.620;7.232;2023-06-22T10:35:38;27.80;1.00
20174;DHT22;10246;50.620;7.232;2023-06-22T10:38:06;27.60;1.00
20174;DHT22;10246;50.620;7.232;2023-06-22T10:40:33;27.40;1.00
20174;DHT22;10246;50.620;7.232;2023-06-22T10:43:00;27.20;1.00
20174;DHT22;10246;50.620;7.232;2023-06-22T10:45:28;27.10;1.00
20174;DHT22;10246;50.620;7.232;2023-06-22T10:47:55;26.80;1.00
20174;DHT22;10246;50.620;7.232;2023-06-22T10:50:24;26.60;1.00
20174;DHT22;10246;50.620;7.232;2023-06-22T10:52:51;26.40;1.00
20174;DHT22;10246;50.620;7.232;2023-06-22T10:55:18;26.20;1.80
20174;DHT22;10246;50.620;7.232;2023-06-22T10:57:45;25.90;3.60
20174;DHT22;10246;50.620;7.232;2023-06-22T11:00:13;25.70;1.30
20174;DHT22;10246;50.620;7.232;2023-06-22T11:02:40;25.50;2.20
20174;DHT22;10246;50.620;7.232;2023-06-22T11:05:07;25.20;3.80
20174;DHT22;10246;50.620;7.232;2023-06-22T11:07:37;25.30;3.10
20174;DHT22;10246;50.620;7.232;2023-06-22T11:10:04;25.30;4.10
20174;DHT22;10246;50.620;7.232;2023-06-22T11:12:31;25.10;6.20
20174;DHT22;10246;50.620;7.232;2023-06-22T11:14:58;25.10;7.00
20174;DHT22;10246;50.620;7.232;2023-06-22T11:17:24;25.10;7.80
20174;DHT22;10246;50.620;7.232;2023-06-22T11:19:51;25.20;7.10
20174;DHT22;10246;50.620;7.232;2023-06-22T11:22:18;25.20;7.40
20174;DHT22;10246;50.620;7.232;2023-06-22T11:24:46;25.30;8.50
20174;DHT22;10246;50.620;7.232;2023-06-22T11:27:13;25.40;8.50
20174;DHT22;10246;50.620;7.232;2023-06-22T11:29:40;25.60;9.70
20174;DHT22;10246;50.620;7.232;2023-06-22T11:32:07;25.90;9.30
20174;DHT22;10246;50.620;7.232;2023-06-22T11:34:34;26.10;8.90
20174;DHT22;10246;50.620;7.232;2023-06-22T11:37:01;26.20;4.00
20174;DHT22;10246;50.620;7.232;2023-06-22T11:39:27;26.10;4.00
20174;DHT22;10246;50.620;7.232;2023-06-22T11:41:55;26.20;4.80
20174;DHT22;10246;50.620;7.232;2023-06-22T11:44:22;26.10;2.70
20174;DHT22;10246;50.620;7.232;2023-06-22T11:46:49;26.10;1.70
20174;DHT22;10246;50.620;7.232;2023-06-22T11:49:16;26.20;1.00
20174;DHT22;10246;50.620;7.232;2023-06-22T11:51:42;26.20;1.00
20174;DHT22;10246;50.620;7.232;2023-06-22T11:54:09;26.20;1.80
20174;DHT22;10246;50.620;7.232;2023-06-22T11:56:36;26.20;1.00
20174;DHT22;10246;50.620;7.232;2023-06-22T11:59:04;26.20;2.20
20174;DHT22;10246;50.620;7.232;2023-06-22T12:01:30;26.20;1.00
20174;DHT22;10246;50.620;7.232;2023-06-22T12:03:58;26.20;1.00
20174;DHT22;10246;50.620;7.232;2023-06-22T12:06:25;26.10;1.00
20174;DHT22;10246;50.620;7.232;2023-06-22T12:08:52;26.10;1.00
20174;DHT22;10246;50.620;7.232;2023-06-22T12:11:18;26.10;1.00
20174;DHT22;10246;50.620;7.232;2023-06-22T12:13:45;26.20;1.00
20174;DHT22;10246;50.620;7.232;2023-06-22T12:16:13;26.20;1.00
20174;DHT22;10246;50.620;7.232;2023-06-22T12:18:40;26.20;1.00
20174;DHT22;10246;50.620;7.232;2023-06-22T12:21:07;26.30;1.00
20174;DHT22;10246;50.620;7.232;2023-06-22T12:23:35;26.40;1.00
20174;DHT22;10246;50.620;7.232;2023-06-22T12:26:02;26.40;1.00
20174;DHT22;10246;50.620;7.232;2023-06-22T12:28:29;26.30;1.00
20174;DHT22;10246;50.620;7.232;2023-06-22T12:30:57;26.00;1.00
20174;DHT22;10246;50.620;7.232;2023-06-22T12:33:25;25.90;1.00
20174;DHT22;10246;50.620;7.232;2023-06-22T12:35:52;26.00;1.00
20174;DHT22;10246;50.620;7.232;2023-06-22T12:38:18;26.00;1.00
20174;DHT22;10246;50.620;7.232;2023-06-22T12:40:45;26.10;1.00
20174;DHT22;10246;50.620;7.232;2023-06-22T12:43:14;26.20;1.00
20174;DHT22;10246;50.620;7.232;2023-06-22T12:45:41;26.30;1.00
20174;DHT22;10246;50.620;7.232;2023-06-22T12:48:08;26.50;1.00
20174;DHT22;10246;50.620;7.232;2023-06-22T12:50:36;26.60;1.00
20174;DHT22;10246;50.620;7.232;2023-06-22T12:53:03;26.70;1.00
20174;DHT22;10246;50.620;7.232;2023-06-22T12:55:31;26.70;1.00
20174;DHT22;10246;50.620;7.232;2023-06-22T12:57:58;26.70;1.00
20174;DHT22;10246;50.620;7.232;2023-06-22T13:00:25;26.80;1.00
20174;DHT22;10246;50.620;7.232;2023-06-22T13:02:51;26.90;1.00
20174;DHT22;10246;50.620;7.232;2023-06-22T13:05:18;27.10;1.00
20174;DHT22;10246;50.620;7.232;2023-06-22T13:07:47;27.40;1.00
20174;DHT22;10246;50.620;7.232;2023-06-22T13:10:14;27.60;1.00
20174;DHT22;10246;50.620;7.232;2023-06-22T13:12:40;27.90;1.00
20174;DHT22;10246;50.620;7.232;2023-06-22T13:15:07;27.90;1.00
20174;DHT22;10246;50.620;7.232;2023-06-22T13:17:34;28.00;1.00
20174;DHT22;10246;50.620;7.232;2023-06-22T13:20:01;28.00;1.00
20174;DHT22;10246;50.620;7.232;2023-06-22T13:22:31;28.00;1.00
20174;DHT22;10246;50.620;7.232;2023-06-22T13:25:00;28.00;1.00
20174;DHT22;10246;50.620;7.232;2023-06-22T13:27:27;28.10;1.00
20174;DHT22;10246;50.620;7.232;2023-06-22T13:29:54;28.30;1.00
20174;DHT22;10246;50.620;7.232;2023-06-22T13:32:21;28.40;1.00
20174;DHT22;10246;50.620;7.232;2023-06-22T13:34:48;28.30;1.00
20174;DHT22;10246;50.620;7.232;2023-06-22T13:37:14;28.10;1.00
20174;DHT22;10246;50.620;7.232;2023-06-22T13:39:41;28.00;1.00
20174;DHT22;10246;50.620;7.232;2023-06-22T13:42:09;28.20;1.00
20174;DHT22;10246;50.620;7.232;2023-06-22T13:44:36;28.30;1.00
20174;DHT22;10246;50.620;7.232;2023-06-22T13:47:03;28.40;1.00
20174;DHT22;10246;50.620;7.232;2023-06-22T13:49:31;28.80;1.00
20174;DHT22;10246;50.620;7.232;2023-06-22T13:51:57;28.90;1.00
20174;DHT22;10246;50.620;7.232;2023-06-22T13:54:24;28.70;1.00
20174;DHT22;10246;50.620;7.232;2023-06-22T13:56:51;28.60;1.00
20174;DHT22;10246;50.620;7.232;2023-06-22T13:59:19;28.60;1.00
20174;DHT22;10246;50.620;7.232;2023-06-22T14:01:46;28.40;1.00
20174;DHT22;10246;50.620;7.232;2023-06-22T14:04:13;28.20;1.00
20174;DHT22;10246;50.620;7.232;2023-06-22T14:06:42;28.30;1.00
20174;DHT22;10246;50.620;7.232;2023-06-22T14:09:08;28.20;1.00
20174;DHT22;10246;50.620;7.232;2023-06-22T14:11:35;28.20;1.00
20174;DHT22;10246;50.620;7.232;2023-06-22T14:14:03;28.20;1.00
20174;DHT22;10246;50.620;7.232;2023-06-22T14:16:31;28.00;1.00
20174;DHT22;10246;50.620;7.232;2023-06-22T14:18:58;27.70;1.00
20174;DHT22;10246;50.620;7.232;2023-06-22T14:21:25;27.60;1.00
20174;DHT22;10246;50.620;7.232;2023-06-22T14:23:52;27.60;1.00
20174;DHT22;10246;50.620;7.232;2023-06-22T14:26:19;27.50;1.00
20174;DHT22;10246;50.620;7.232;2023-06-22T14:28:47;27.40;1.00
20174;DHT22;10246;50.620;7.232;2023-06-22T14:31:14;27.30;1.00
20174;DHT22;10246;50.620;7.232;2023-06-22T14:33:47;27.30;1.00
20174;DHT22;10246;50.620;7.232;2023-06-22T14:36:14;27.00;1.00
20174;DHT22;10246;50.620;7.232;2023-06-22T14:38:41;26.90;1.00
20174;DHT22;10246;50.620;7.232;2023-06-22T14:41:07;26.60;2.50
20174;DHT22;10246;50.620;7.232;2023-06-22T14:43:34;26.30;4.40
20174;DHT22;10246;50.620;7.232;2023-06-22T14:46:01;26.20;5.10
20174;DHT22;10246;50.620;7.232;2023-06-22T14:48:28;25.90;5.80
20174;DHT22;10246;50.620;7.232;2023-06-22T14:50:58;25.70;7.50
20174;DHT22;10246;50.620;7.232;2023-06-22T14:53:25;25.40;8.50
20174;DHT22;10246;50.620;7.232;2023-06-22T14:55:53;25.10;10.10
20174;DHT22;10246;50.620;7.232;2023-06-22T14:58:21;24.40;15.30
20174;DHT22;10246;50.620;7.232;2023-06-22T15:00:48;24.10;13.70
20174;DHT22;10246;50.620;7.232;2023-06-22T15:03:15;24.00;14.60
20174;DHT22;10246;50.620;7.232;2023-06-22T15:05:50;24.00;12.70
20174;DHT22;10246;50.620;7.232;2023-06-22T15:08:19;24.00;11.80
20174;DHT22;10246;50.620;7.232;2023-06-22T15:10:45;24.00;11.10
20174;DHT22;10246;50.620;7.232;2023-06-22T15:13:12;24.10;11.00
20174;DHT22;10246;50.620;7.232;2023-06-22T15:15:47;24.10;10.00
20174;DHT22;10246;50.620;7.232;2023-06-22T15:18:24;24.20;9.90
20174;DHT22;10246;50.620;7.232;2023-06-22T15:20:57;24.20;10.00
20174;DHT22;10246;50.620;7.232;2023-06-22T15:23:27;24.20;10.30
20174;DHT22;10246;50.620;7.232;2023-06-22T15:25:55;24.10;9.10
20174;DHT22;10246;50.620;7.232;2023-06-22T15:28:22;24.10;9.20
20174;DHT22;10246;50.620;7.232;2023-06-22T15:30:48;23.90;8.20
20174;DHT22;10246;50.620;7.232;2023-06-22T15:33:16;23.90;9.20
20174;DHT22;10246;50.620;7.232;2023-06-22T15:35:43;23.90;8.80
20174;DHT22;10246;50.620;7.232;2023-06-22T15:38:09;23.80;8.50
20174;DHT22;10246;50.620;7.232;2023-06-22T15:40:37;23.60;9.80
20174;DHT22;10246;50.620;7.232;2023-06-22T15:43:04;23.50;10.50
20174;DHT22;10246;50.620;7.232;2023-06-22T15:45:31;23.50;11.60
20174;DHT22;10246;50.620;7.232;2023-06-22T15:47:58;23.50;10.30